sensor_id;sensor_type;location;lat;lon;timestamp;pressure;altitude;pressure_sealevel;temperature;humidity
76434;BME280;65265;53.200;6.080;2023-04-09T00:01:08;102745.31;;;7.96;100.00
76434;BME280;65265;53.200;6.080;2023-04-09T00:06:00;102740.44;;;7.99;100.00
76434;BME280;65265;53.200;6.080;2023-04-09T00:10:53;102738.13;;;8.02;99.88
76434;BME280;65265;53.200;6.080;2023-04-09T00:15:46;102748.09;;;7.99;99.82
76434;BME280;65265;53.200;6.080;2023-04-09T00:20:38;102735.59;;;8.02;99.51
76434;BME280;65265;53.200;6.080;2023-04-09T00:25:30;102741.69;;;8.04;99.35
76434;BME280;65265;53.200;6.080;2023-04-09T00:30:27;102740.44;;;7.99;99.10
76434;BME280;65265;53.200;6.080;2023-04-09T00:35:19;102709.28;;;7.91;98.81
76434;BME280;65265;53.200;6.080;2023-04-09T00:40:10;102707.19;;;7.97;97.78
76434;BME280;65265;53.200;6.080;2023-04-09T00:45:03;102719.13;;;8.08;97.56
76434;BME280;65265;53.200;6.080;2023-04-09T00:49:57;102715.56;;;8.06;97.56
76434;BME280;65265;53.200;6.080;2023-04-09T00:54:49;102709.84;;;8.09;97.62
76434;BME280;65265;53.200;6.080;2023-04-09T00:59:41;102713.94;;;8.07;97.36
76434;BME280;65265;53.200;6.080;2023-04-09T01:04:35;102707.38;;;8.10;96.51
76434;BME280;65265;53.200;6.080;2023-04-09T01:09:32;102701.56;;;8.11;95.98
76434;BME280;65265;53.200;6.080;2023-04-09T01:14:29;102698.88;;;8.10;96.13
76434;BME280;65265;53.200;6.080;2023-04-09T01:19:36;102698.50;;;8.05;95.36
76434;BME280;65265;53.200;6.080;2023-04-09T01:24:37;102703.09;;;7.99;95.64
76434;BME280;65265;53.200;6.080;2023-04-09T01:29:36;102695.00;;;7.93;94.85
76434;BME280;65265;53.200;6.080;2023-04-09T01:34:29;102706.56;;;8.00;94.78
76434;BME280;65265;53.200;6.080;2023-04-09T01:39:22;102702.47;;;8.02;94.63
76434;BME280;65265;53.200;6.080;2023-04-09T01:44:15;102705.31;;;7.95;95.12
76434;BME280;65265;53.200;6.080;2023-04-09T01:49:09;102709.88;;;7.99;94.78
76434;BME280;65265;53.200;6.080;2023-04-09T01:54:01;102698.91;;;8.00;94.64
76434;BME280;65265;53.200;6.080;2023-04-09T01:58:53;102701.22;;;7.97;94.09
76434;BME280;65265;53.200;6.080;2023-04-09T02:03:47;102705.59;;;7.88;94.12
76434;BME280;65265;53.200;6.080;2023-04-09T02:08:43;102707.00;;;7.84;94.81
76434;BME280;65265;53.200;6.080;2023-04-09T02:13:36;102708.19;;;7.78;95.26
76434;BME280;65265;53.200;6.080;2023-04-09T02:18:29;102704.63;;;7.76;94.91
76434;BME280;65265;53.200;6.080;2023-04-09T02:23:22;102702.06;;;7.76;94.23
76434;BME280;65265;53.200;6.080;2023-04-09T02:28:16;102695.69;;;7.71;95.19
76434;BME280;65265;53.200;6.080;2023-04-09T02:33:07;102693.47;;;7.64;95.33
76434;BME280;65265;53.200;6.080;2023-04-09T02:38:00;102693.06;;;7.69;94.81
76434;BME280;65265;53.200;6.080;2023-04-09T02:42:53;102684.81;;;7.62;94.64
76434;BME280;65265;53.200;6.080;2023-04-09T02:47:46;102663.09;;;7.45;95.43
76434;BME280;65265;53.200;6.080;2023-04-09T02:52:39;102683.03;;;7.61;94.81
76434;BME280;65265;53.200;6.080;2023-04-09T02:57:31;102682.75;;;7.58;95.09
76434;BME280;65265;53.200;6.080;2023-04-09T03:02:24;102682.00;;;7.59;94.50
76434;BME280;65265;53.200;6.080;2023-04-09T03:07:17;102675.41;;;7.51;94.95
76434;BME280;65265;53.200;6.080;2023-04-09T03:12:09;102668.44;;;7.38;95.19
76434;BME280;65265;53.200;6.080;2023-04-09T03:17:01;102665.16;;;7.19;95.38
76434;BME280;65265;53.200;6.080;2023-04-09T03:21:52;102669.00;;;7.04;95.48
76434;BME280;65265;53.200;6.080;2023-04-09T03:26:46;102651.84;;;6.82;96.52
76434;BME280;65265;53.200;6.080;2023-04-09T03:31:39;102662.00;;;6.92;97.14
76434;BME280;65265;53.200;6.080;2023-04-09T03:36:30;102653.22;;;6.89;97.72
76434;BME280;65265;53.200;6.080;2023-04-09T03:41:22;102649.56;;;6.85;98.29
76434;BME280;65265;53.200;6.080;2023-04-09T03:46:17;102654.91;;;6.88;98.86
76434;BME280;65265;53.200;6.080;2023-04-09T03:51:10;102664.06;;;6.86;99.17
76434;BME280;65265;53.200;6.080;2023-04-09T03:56:02;102667.75;;;6.90;99.02
76434;BME280;65265;53.200;6.080;2023-04-09T04:00:54;102659.34;;;6.91;99.37
76434;BME280;65265;53.200;6.080;2023-04-09T04:05:47;102652.34;;;6.88;99.81
76434;BME280;65265;53.200;6.080;2023-04-09T04:10:39;102653.59;;;6.93;99.20
76434;BME280;65265;53.200;6.080;2023-04-09T04:15:31;102661.91;;;7.01;99.08
76434;BME280;65265;53.200;6.080;2023-04-09T04:20:23;102659.47;;;7.02;98.81
76434;BME280;65265;53.200;6.080;2023-04-09T04:25:16;102659.22;;;6.99;98.80
76434;BME280;65265;53.200;6.080;2023-04-09T04:30:08;102656.44;;;6.96;99.10
76434;BME280;65265;53.200;6.080;2023-04-09T04:35:00;102658.97;;;6.96;99.42
76434;BME280;65265;53.200;6.080;2023-04-09T04:39:52;102651.06;;;6.93;99.68
76434;BME280;65265;53.200;6.080;2023-04-09T04:44:46;102641.66;;;6.82;99.79
76434;BME280;65265;53.200;6.080;2023-04-09T04:49:38;102667.47;;;6.97;99.62
76434;BME280;65265;53.200;6.080;2023-04-09T04:54:29;102677.53;;;6.95;99.29
76434;BME280;65265;53.200;6.080;2023-04-09T04:59:21;102678.28;;;6.94;99.48
76434;BME280;65265;53.200;6.080;2023-04-09T05:04:14;102675.00;;;6.95;99.59
76434;BME280;65265;53.200;6.080;2023-04-09T05:09:06;102672.81;;;6.99;99.20
76434;BME280;65265;53.200;6.080;2023-04-09T05:13:58;102674.84;;;7.03;99.54
76434;BME280;65265;53.200;6.080;2023-04-09T05:18:51;102673.19;;;7.04;99.50
76434;BME280;65265;53.200;6.080;2023-04-09T05:23:44;102662.16;;;7.03;99.74
76434;BME280;65265;53.200;6.080;2023-04-09T05:28:36;102661.00;;;7.00;100.00
76434;BME280;65265;53.200;6.080;2023-04-09T05:33:28;102659.69;;;7.05;100.00
76434;BME280;65265;53.200;6.080;2023-04-09T05:38:24;102666.06;;;7.10;98.84
76434;BME280;65265;53.200;6.080;2023-04-09T05:43:17;102665.06;;;7.08;98.99
76434;BME280;65265;53.200;6.080;2023-04-09T05:48:10;102670.41;;;7.11;99.08
76434;BME280;65265;53.200;6.080;2023-04-09T05:53:02;102662.63;;;7.09;99.33
76434;BME280;65265;53.200;6.080;2023-04-09T05:57:54;102669.75;;;7.13;99.17
76434;BME280;65265;53.200;6.080;2023-04-09T06:02:47;102669.09;;;7.16;98.81
76434;BME280;65265;53.200;6.080;2023-04-09T06:07:39;102678.25;;;7.24;98.22
76434;BME280;65265;53.200;6.080;2023-04-09T06:12:33;102675.09;;;7.26;95.86
76434;BME280;65265;53.200;6.080;2023-04-09T06:17:24;102669.75;;;7.33;92.86
76434;BME280;65265;53.200;6.080;2023-04-09T06:22:17;102670.38;;;7.31;93.66
76434;BME280;65265;53.200;6.080;2023-04-09T06:27:10;102664.88;;;7.36;93.30
76434;BME280;65265;53.200;6.080;2023-04-09T06:32:04;102657.09;;;7.45;90.61
76434;BME280;65265;53.200;6.080;2023-04-09T06:36:56;102674.66;;;7.52;89.04
76434;BME280;65265;53.200;6.080;2023-04-09T06:41:49;102672.34;;;7.55;89.31
76434;BME280;65265;53.200;6.080;2023-04-09T06:46:41;102685.59;;;7.51;90.05
76434;BME280;65265;53.200;6.080;2023-04-09T06:51:33;102684.84;;;7.52;89.66
76434;BME280;65265;53.200;6.080;2023-04-09T06:56:25;102682.00;;;7.59;89.69
76434;BME280;65265;53.200;6.080;2023-04-09T07:01:19;102686.81;;;7.66;88.95
76434;BME280;65265;53.200;6.080;2023-04-09T07:06:11;102686.59;;;7.63;89.32
76434;BME280;65265;53.200;6.080;2023-04-09T07:11:04;102681.56;;;7.74;88.43
76434;BME280;65265;53.200;6.080;2023-04-09T07:15:56;102690.88;;;7.74;86.25
76434;BME280;65265;53.200;6.080;2023-04-09T07:20:50;102701.69;;;7.71;86.22
76434;BME280;65265;53.200;6.080;2023-04-09T07:25:43;102694.84;;;7.70;86.45
76434;BME280;65265;53.200;6.080;2023-04-09T07:30:34;102701.56;;;7.70;87.06
76434;BME280;65265;53.200;6.080;2023-04-09T07:35:26;102696.84;;;7.74;87.67
76434;BME280;65265;53.200;6.080;2023-04-09T07:40:19;102701.94;;;7.74;87.78
76434;BME280;65265;53.200;6.080;2023-04-09T07:45:11;102696.44;;;7.80;86.76
76434;BME280;65265;53.200;6.080;2023-04-09T07:50:03;102703.81;;;7.87;85.90
76434;BME280;65265;53.200;6.080;2023-04-09T07:54:55;102669.38;;;7.70;85.49
76434;BME280;65265;53.200;6.080;2023-04-09T07:59:49;102700.28;;;7.85;86.14
76434;BME280;65265;53.200;6.080;2023-04-09T08:04:41;102701.22;;;7.97;84.88
76434;BME280;65265;53.200;6.080;2023-04-09T08:09:33;102688.72;;;8.00;84.06
76434;BME280;65265;53.200;6.080;2023-04-09T08:14:25;102697.34;;;8.12;85.35
76434;BME280;65265;53.200;6.080;2023-04-09T08:19:18;102690.19;;;8.18;84.46
76434;BME280;65265;53.200;6.080;2023-04-09T08:24:11;102694.78;;;8.22;83.85
76434;BME280;65265;53.200;6.080;2023-04-09T08:29:03;102691.94;;;8.29;83.55
76434;BME280;65265;53.200;6.080;2023-04-09T08:33:55;102688.06;;;8.34;84.24
76434;BME280;65265;53.200;6.080;2023-04-09T08:38:49;102684.75;;;8.35;83.26
76434;BME280;65265;53.200;6.080;2023-04-09T08:43:42;102695.94;;;8.37;83.20
76434;BME280;65265;53.200;6.080;2023-04-09T08:48:35;102700.53;;;8.41;83.32
76434;BME280;65265;53.200;6.080;2023-04-09T08:53:27;102700.22;;;8.48;82.33
76434;BME280;65265;53.200;6.080;2023-04-09T08:58:21;102707.81;;;8.58;81.72
76434;BME280;65265;53.200;6.080;2023-04-09T09:03:13;102709.59;;;8.59;81.02
76434;BME280;65265;53.200;6.080;2023-04-09T09:08:07;102702.72;;;8.58;80.92
76434;BME280;65265;53.200;6.080;2023-04-09T09:12:59;102703.78;;;8.71;81.04
76434;BME280;65265;53.200;6.080;2023-04-09T09:17:55;102707.88;;;8.69;81.84
76434;BME280;65265;53.200;6.080;2023-04-09T09:22:51;102702.22;;;8.73;80.76
76434;BME280;65265;53.200;6.080;2023-04-09T09:27:43;102707.19;;;8.72;81.42
76434;BME280;65265;53.200;6.080;2023-04-09T09:32:35;102695.69;;;8.77;81.01
76434;BME280;65265;53.200;6.080;2023-04-09T09:37:29;102684.16;;;8.82;79.83
76434;BME280;65265;53.200;6.080;2023-04-09T09:42:21;102692.88;;;8.95;80.29
76434;BME280;65265;53.200;6.080;2023-04-09T09:47:14;102691.66;;;9.02;79.06
76434;BME280;65265;53.200;6.080;2023-04-09T09:52:09;102680.50;;;9.23;78.90
76434;BME280;65265;53.200;6.080;2023-04-09T09:57:03;102679.84;;;9.37;78.55
76434;BME280;65265;53.200;6.080;2023-04-09T10:01:59;102677.19;;;9.46;78.83
76434;BME280;65265;53.200;6.080;2023-04-09T10:06:55;102672.09;;;9.58;77.74
76434;BME280;65265;53.200;6.080;2023-04-09T10:11:49;102680.63;;;9.70;77.28
76434;BME280;65265;53.200;6.080;2023-04-09T10:16:43;102676.06;;;9.77;76.85
76434;BME280;65265;53.200;6.080;2023-04-09T10:21:39;102664.59;;;9.95;76.35
76434;BME280;65265;53.200;6.080;2023-04-09T10:26:33;102657.84;;;10.07;76.16
76434;BME280;65265;53.200;6.080;2023-04-09T10:31:26;102644.66;;;10.26;75.31
76434;BME280;65265;53.200;6.080;2023-04-09T10:36:19;102642.88;;;10.49;75.71
76434;BME280;65265;53.200;6.080;2023-04-09T10:41:14;102640.78;;;10.68;74.27
76434;BME280;65265;53.200;6.080;2023-04-09T10:46:24;102641.59;;;10.80;73.65
76434;BME280;65265;53.200;6.080;2023-04-09T10:51:20;102629.38;;;11.01;72.58
76434;BME280;65265;53.200;6.080;2023-04-09T10:56:14;102638.41;;;11.09;72.76
76434;BME280;65265;53.200;6.080;2023-04-09T11:01:06;102619.25;;;11.41;73.01
76434;BME280;65265;53.200;6.080;2023-04-09T11:06:00;102620.34;;;11.71;71.79
76434;BME280;65265;53.200;6.080;2023-04-09T11:10:56;102611.16;;;11.74;72.24
76434;BME280;65265;53.200;6.080;2023-04-09T11:15:50;102603.00;;;11.94;70.85
76434;BME280;65265;53.200;6.080;2023-04-09T11:20:41;102593.63;;;12.07;71.31
76434;BME280;65265;53.200;6.080;2023-04-09T11:25:34;102590.25;;;12.36;69.50
76434;BME280;65265;53.200;6.080;2023-04-09T11:30:27;102581.31;;;12.29;69.35
76434;BME280;65265;53.200;6.080;2023-04-09T11:35:21;102577.38;;;12.21;69.13
76434;BME280;65265;53.200;6.080;2023-04-09T11:40:15;102572.91;;;12.32;70.01
76434;BME280;65265;53.200;6.080;2023-04-09T11:45:08;102561.09;;;12.63;68.27
76434;BME280;65265;53.200;6.080;2023-04-09T11:50:05;102567.34;;;12.53;69.10
76434;BME280;65265;53.200;6.080;2023-04-09T11:54:58;102556.84;;;12.78;68.13
76434;BME280;65265;53.200;6.080;2023-04-09T11:59:50;102552.84;;;13.26;68.03
76434;BME280;65265;53.200;6.080;2023-04-09T12:04:48;102546.19;;;13.76;66.38
76434;BME280;65265;53.200;6.080;2023-04-09T12:09:46;102553.84;;;13.91;64.79
76434;BME280;65265;53.200;6.080;2023-04-09T12:14:44;102543.75;;;14.26;63.23
76434;BME280;65265;53.200;6.080;2023-04-09T12:19:35;102533.03;;;14.50;62.05
76434;BME280;65265;53.200;6.080;2023-04-09T12:24:27;102530.47;;;14.67;60.08
76434;BME280;65265;53.200;6.080;2023-04-09T12:29:20;102541.31;;;14.13;61.92
76434;BME280;65265;53.200;6.080;2023-04-09T12:34:15;102538.84;;;14.46;63.06
76434;BME280;65265;53.200;6.080;2023-04-09T12:39:07;102541.84;;;14.88;60.79
76434;BME280;65265;53.200;6.080;2023-04-09T12:43:59;102519.59;;;15.25;59.45
76434;BME280;65265;53.200;6.080;2023-04-09T12:48:56;102515.97;;;15.74;58.55
76434;BME280;65265;53.200;6.080;2023-04-09T12:53:48;102473.91;;;15.96;57.43
76434;BME280;65265;53.200;6.080;2023-04-09T12:58:40;102501.69;;;16.01;54.85
76434;BME280;65265;53.200;6.080;2023-04-09T13:03:32;102481.03;;;15.44;55.98
76434;BME280;65265;53.200;6.080;2023-04-09T13:08:27;102511.63;;;15.37;57.48
76434;BME280;65265;53.200;6.080;2023-04-09T13:13:19;102515.13;;;15.21;57.51
76434;BME280;65265;53.200;6.080;2023-04-09T13:18:11;102502.38;;;15.24;58.18
76434;BME280;65265;53.200;6.080;2023-04-09T13:23:03;102501.66;;;15.27;57.45
76434;BME280;65265;53.200;6.080;2023-04-09T13:27:57;102485.59;;;15.15;59.55
76434;BME280;65265;53.200;6.080;2023-04-09T13:32:52;102481.66;;;15.58;57.70
76434;BME280;65265;53.200;6.080;2023-04-09T13:37:44;102483.19;;;15.35;57.19
76434;BME280;65265;53.200;6.080;2023-04-09T13:42:36;102505.13;;;15.27;56.85
76434;BME280;65265;53.200;6.080;2023-04-09T13:47:29;102503.66;;;15.15;56.28
76434;BME280;65265;53.200;6.080;2023-04-09T13:52:21;102483.56;;;15.62;52.87
76434;BME280;65265;53.200;6.080;2023-04-09T13:57:13;102480.88;;;15.60;52.23
76434;BME280;65265;53.200;6.080;2023-04-09T14:02:05;102479.13;;;15.40;54.77
76434;BME280;65265;53.200;6.080;2023-04-09T14:06:59;102485.75;;;15.18;54.84
76434;BME280;65265;53.200;6.080;2023-04-09T14:11:51;102466.09;;;15.02;54.41
76434;BME280;65265;53.200;6.080;2023-04-09T14:16:43;102475.13;;;15.47;55.32
76434;BME280;65265;53.200;6.080;2023-04-09T14:21:36;102469.06;;;15.46;54.13
76434;BME280;65265;53.200;6.080;2023-04-09T14:26:29;102460.69;;;15.50;54.41
76434;BME280;65265;53.200;6.080;2023-04-09T14:31:20;102448.81;;;15.73;54.13
76434;BME280;65265;53.200;6.080;2023-04-09T14:36:12;102434.16;;;16.11;53.80
76434;BME280;65265;53.200;6.080;2023-04-09T14:41:04;102421.50;;;16.36;52.01
76434;BME280;65265;53.200;6.080;2023-04-09T14:45:57;102422.25;;;16.34;49.99
76434;BME280;65265;53.200;6.080;2023-04-09T14:50:49;102413.91;;;16.00;50.97
76434;BME280;65265;53.200;6.080;2023-04-09T14:55:41;102413.19;;;16.04;51.35
76434;BME280;65265;53.200;6.080;2023-04-09T15:00:33;102402.13;;;16.06;52.94
76434;BME280;65265;53.200;6.080;2023-04-09T15:05:27;102391.38;;;16.16;53.38
76434;BME280;65265;53.200;6.080;2023-04-09T15:10:18;102391.50;;;16.19;50.76
76434;BME280;65265;53.200;6.080;2023-04-09T15:15:10;102391.09;;;15.90;50.05
76434;BME280;65265;53.200;6.080;2023-04-09T15:20:04;102359.34;;;15.72;51.24
76434;BME280;65265;53.200;6.080;2023-04-09T15:24:58;102370.69;;;15.96;50.58
76434;BME280;65265;53.200;6.080;2023-04-09T15:29:51;102370.53;;;16.12;50.75
76434;BME280;65265;53.200;6.080;2023-04-09T15:34:43;102352.50;;;16.13;49.89
76434;BME280;65265;53.200;6.080;2023-04-09T15:39:34;102348.66;;;16.24;50.24
76434;BME280;65265;53.200;6.080;2023-04-09T15:44:28;102333.19;;;16.24;49.28
76434;BME280;65265;53.200;6.080;2023-04-09T15:49:19;102343.50;;;16.24;49.76
76434;BME280;65265;53.200;6.080;2023-04-09T15:54:11;102343.25;;;15.98;49.58
76434;BME280;65265;53.200;6.080;2023-04-09T15:59:04;102340.19;;;16.06;51.17
76434;BME280;65265;53.200;6.080;2023-04-09T16:04:01;102340.66;;;15.98;49.02
76434;BME280;65265;53.200;6.080;2023-04-09T16:08:54;102336.47;;;16.00;49.94
76434;BME280;65265;53.200;6.080;2023-04-09T16:13:45;102340.44;;;15.92;50.25
76434;BME280;65265;53.200;6.080;2023-04-09T16:18:37;102321.09;;;15.82;48.31
76434;BME280;65265;53.200;6.080;2023-04-09T16:23:30;102324.69;;;15.86;50.36
76434;BME280;65265;53.200;6.080;2023-04-09T16:28:23;102318.69;;;15.66;50.22
76434;BME280;65265;53.200;6.080;2023-04-09T16:33:15;102321.19;;;15.65;50.05
76434;BME280;65265;53.200;6.080;2023-04-09T16:38:07;102325.38;;;15.61;49.14
76434;BME280;65265;53.200;6.080;2023-04-09T16:43:00;102335.91;;;15.47;50.28
76434;BME280;65265;53.200;6.080;2023-04-09T16:47:52;102321.78;;;15.39;50.61
76434;BME280;65265;53.200;6.080;2023-04-09T16:52:44;102323.41;;;15.37;50.33
76434;BME280;65265;53.200;6.080;2023-04-09T16:57:35;102325.44;;;15.25;50.43
76434;BME280;65265;53.200;6.080;2023-04-09T17:02:30;102314.63;;;14.95;52.48
76434;BME280;65265;53.200;6.080;2023-04-09T17:07:22;102329.13;;;15.12;52.22
76434;BME280;65265;53.200;6.080;2023-04-09T17:12:13;102326.84;;;15.18;50.93
76434;BME280;65265;53.200;6.080;2023-04-09T17:17:06;102318.97;;;14.96;49.83
76434;BME280;65265;53.200;6.080;2023-04-09T17:22:00;102304.50;;;14.81;50.57
76434;BME280;65265;53.200;6.080;2023-04-09T17:26:52;102299.31;;;14.62;50.05
76434;BME280;65265;53.200;6.080;2023-04-09T17:31:43;102310.53;;;14.62;50.42
76434;BME280;65265;53.200;6.080;2023-04-09T17:36:35;102311.41;;;14.45;51.02
76434;BME280;65265;53.200;6.080;2023-04-09T17:41:29;102305.22;;;14.25;51.04
76434;BME280;65265;53.200;6.080;2023-04-09T17:46:20;102309.03;;;13.98;51.69
76434;BME280;65265;53.200;6.080;2023-04-09T17:51:14;102312.16;;;13.75;52.80
76434;BME280;65265;53.200;6.080;2023-04-09T17:56:07;102309.34;;;13.54;53.50
76434;BME280;65265;53.200;6.080;2023-04-09T18:01:05;102319.28;;;13.31;53.88
76434;BME280;65265;53.200;6.080;2023-04-09T18:05:57;102314.06;;;13.13;53.98
76434;BME280;65265;53.200;6.080;2023-04-09T18:10:49;102316.19;;;12.90;54.19
76434;BME280;65265;53.200;6.080;2023-04-09T18:15:45;102319.19;;;12.67;55.79
76434;BME280;65265;53.200;6.080;2023-04-09T18:20:38;102321.28;;;12.43;56.11
76434;BME280;65265;53.200;6.080;2023-04-09T18:25:30;102326.53;;;12.30;57.25
76434;BME280;65265;53.200;6.080;2023-04-09T18:30:23;102310.41;;;12.02;57.34
76434;BME280;65265;53.200;6.080;2023-04-09T18:35:15;102320.22;;;11.95;57.54
76434;BME280;65265;53.200;6.080;2023-04-09T18:40:10;102312.09;;;11.73;57.86
76434;BME280;65265;53.200;6.080;2023-04-09T18:45:05;102328.00;;;11.68;58.51
76434;BME280;65265;53.200;6.080;2023-04-09T18:49:57;102317.41;;;11.49;58.64
76434;BME280;65265;53.200;6.080;2023-04-09T18:54:49;102316.59;;;11.35;59.62
76434;BME280;65265;53.200;6.080;2023-04-09T18:59:42;102317.47;;;11.21;60.01
76434;BME280;65265;53.200;6.080;2023-04-09T19:04:35;102280.31;;;11.00;60.29
76434;BME280;65265;53.200;6.080;2023-04-09T19:09:28;102313.97;;;11.06;60.49
76434;BME280;65265;53.200;6.080;2023-04-09T19:14:20;102316.84;;;10.98;60.94
76434;BME280;65265;53.200;6.080;2023-04-09T19:19:13;102316.03;;;10.71;61.56
76434;BME280;65265;53.200;6.080;2023-04-09T19:24:05;102322.44;;;10.65;62.21
76434;BME280;65265;53.200;6.080;2023-04-09T19:28:57;102328.84;;;10.58;62.13
76434;BME280;65265;53.200;6.080;2023-04-09T19:33:49;102336.72;;;10.61;62.17
76434;BME280;65265;53.200;6.080;2023-04-09T19:38:43;102339.38;;;10.50;62.21
76434;BME280;65265;53.200;6.080;2023-04-09T19:43:34;102327.47;;;10.37;62.97
76434;BME280;65265;53.200;6.080;2023-04-09T19:48:26;102315.31;;;10.33;62.58
76434;BME280;65265;53.200;6.080;2023-04-09T19:53:18;102315.97;;;10.31;62.37
76434;BME280;65265;53.200;6.080;2023-04-09T19:58:11;102313.53;;;10.19;62.99
76434;BME280;65265;53.200;6.080;2023-04-09T20:03:03;102311.66;;;10.17;62.82
76434;BME280;65265;53.200;6.080;2023-04-09T20:07:55;102310.19;;;10.07;63.35
76434;BME280;65265;53.200;6.080;2023-04-09T20:12:48;102313.75;;;10.09;62.54
76434;BME280;65265;53.200;6.080;2023-04-09T20:17:42;102313.75;;;10.09;62.60
76434;BME280;65265;53.200;6.080;2023-04-09T20:22:34;102307.81;;;9.97;63.19
76434;BME280;65265;53.200;6.080;2023-04-09T20:27:26;102310.53;;;9.87;62.94
76434;BME280;65265;53.200;6.080;2023-04-09T20:32:18;102307.38;;;9.78;63.74
76434;BME280;65265;53.200;6.080;2023-04-09T20:37:11;102290.94;;;9.75;63.66
76434;BME280;65265;53.200;6.080;2023-04-09T20:42:03;102290.94;;;9.62;64.34
76434;BME280;65265;53.200;6.080;2023-04-09T20:46:54;102290.81;;;9.47;65.21
76434;BME280;65265;53.200;6.080;2023-04-09T20:51:46;102295.50;;;9.42;65.31
76434;BME280;65265;53.200;6.080;2023-04-09T20:56:39;102290.78;;;9.35;65.81
76434;BME280;65265;53.200;6.080;2023-04-09T21:01:31;102298.81;;;9.28;66.01
76434;BME280;65265;53.200;6.080;2023-04-09T21:06:23;102301.84;;;9.22;66.35
76434;BME280;65265;53.200;6.080;2023-04-09T21:11:15;102307.16;;;9.25;65.93
76434;BME280;65265;53.200;6.080;2023-04-09T21:16:08;102302.31;;;9.17;66.42
76434;BME280;65265;53.200;6.080;2023-04-09T21:21:00;102306.78;;;9.08;66.40
76434;BME280;65265;53.200;6.080;2023-04-09T21:25:52;102306.16;;;8.99;66.84
76434;BME280;65265;53.200;6.080;2023-04-09T21:30:44;102311.25;;;8.99;66.82
76434;BME280;65265;53.200;6.080;2023-04-09T21:35:38;102308.97;;;8.90;67.25
76434;BME280;65265;53.200;6.080;2023-04-09T21:40:30;102310.09;;;8.82;67.31
76434;BME280;65265;53.200;6.080;2023-04-09T21:45:22;102303.88;;;8.79;67.58
76434;BME280;65265;53.200;6.080;2023-04-09T21:50:14;102297.78;;;8.77;67.85
76434;BME280;65265;53.200;6.080;2023-04-09T21:55:08;102288.81;;;8.70;68.09
76434;BME280;65265;53.200;6.080;2023-04-09T22:00:00;102295.38;;;8.67;68.55
76434;BME280;65265;53.200;6.080;2023-04-09T22:04:51;102297.03;;;8.66;68.36
76434;BME280;65265;53.200;6.080;2023-04-09T22:09:43;102293.72;;;8.56;68.44
76434;BME280;65265;53.200;6.080;2023-04-09T22:14:36;102272.47;;;8.44;69.04
76434;BME280;65265;53.200;6.080;2023-04-09T22:19:29;102271.13;;;8.49;68.99
76434;BME280;65265;53.200;6.080;2023-04-09T22:24:21;102273.00;;;8.51;69.22
76434;BME280;65265;53.200;6.080;2023-04-09T22:29:15;102272.47;;;8.44;68.99
76434;BME280;65265;53.200;6.080;2023-04-09T22:34:09;102274.13;;;8.43;69.36
76434;BME280;65265;53.200;6.080;2023-04-09T22:39:02;102256.75;;;8.38;69.58
76434;BME280;65265;53.200;6.080;2023-04-09T22:43:54;102254.97;;;8.37;69.63
76434;BME280;65265;53.200;6.080;2023-04-09T22:48:46;102255.66;;;8.34;69.48
76434;BME280;65265;53.200;6.080;2023-04-09T22:53:40;102243.13;;;8.37;69.64
76434;BME280;65265;53.200;6.080;2023-04-09T22:58:32;102242.03;;;8.34;69.81
76434;BME280;65265;53.200;6.080;2023-04-09T23:03:24;102221.97;;;8.27;69.88
76434;BME280;65265;53.200;6.080;2023-04-09T23:08:16;102219.75;;;8.31;69.61
76434;BME280;65265;53.200;6.080;2023-04-09T23:13:09;102220.13;;;8.24;70.05
76434;BME280;65265;53.200;6.080;2023-04-09T23:18:03;102226.41;;;8.18;70.33
76434;BME280;65265;53.200;6.080;2023-04-09T23:22:54;102224.75;;;8.18;70.18
76434;BME280;65265;53.200;6.080;2023-04-09T23:27:46;102216.09;;;8.16;70.51
76434;BME280;65265;53.200;6.080;2023-04-09T23:32:39;102210.56;;;8.10;70.42
76434;BME280;65265;53.200;6.080;2023-04-09T23:37:31;102211.91;;;8.05;70.72
76434;BME280;65265;53.200;6.080;2023-04-09T23:42:23;102209.47;;;8.07;70.69
76434;BME280;65265;53.200;6.080;2023-04-09T23:47:15;102207.03;;;7.97;70.84
76434;BME280;65265;53.200;6.080;2023-04-09T23:52:08;102196.41;;;8.02;70.42
76434;BME280;65265;53.200;6.080;2023-04-09T23:56:59;102209.13;;;7.91;71.04
